sensor_id;sensor_type;location;lat;lon;timestamp;pressure;altitude;pressure_sealevel;temperature;humidity
20444;BME280;10381;53.730;10.010;2022-07-10T00:02:14;101746.06;;;12.15;100.00
20444;BME280;10381;53.730;10.010;2022-07-10T00:06:16;101745.56;;;12.10;100.00
20444;BME280;10381;53.730;10.010;2022-07-10T00:10:17;101743.03;;;12.08;100.00
20444;BME280;10381;53.730;10.010;2022-07-10T00:14:18;101737.59;;;11.99;100.00
20444;BME280;10381;53.730;10.010;2022-07-10T00:18:18;101731.81;;;11.93;100.00
20444;BME280;10381;53.730;10.010;2022-07-10T00:22:18;101736.09;;;11.83;100.00
20444;BME280;10381;53.730;10.010;2022-07-10T00:26:19;101749.50;;;11.70;100.00
20444;BME280;10381;53.730;10.010;2022-07-10T00:30:19;101746.13;;;11.68;100.00
20444;BME280;10381;53.730;10.010;2022-07-10T00:34:19;101754.56;;;11.73;100.00
20444;BME280;10381;53.730;10.010;2022-07-10T00:38:20;101747.47;;;11.85;100.00
20444;BME280;10381;53.730;10.010;2022-07-10T00:42:20;101747.97;;;11.90;100.00
20444;BME280;10381;53.730;10.010;2022-07-10T00:46:20;101737.72;;;11.97;100.00
20444;BME280;10381;53.730;10.010;2022-07-10T00:50:21;101738.81;;;12.06;100.00
20444;BME280;10381;53.730;10.010;2022-07-10T00:54:21;101727.94;;;12.09;100.00
20444;BME280;10381;53.730;10.010;2022-07-10T00:58:22;101734.94;;;12.10;100.00
20444;BME280;10381;53.730;10.010;2022-07-10T01:02:22;101730.59;;;12.09;100.00
20444;BME280;10381;53.730;10.010;2022-07-10T01:06:23;101727.34;;;12.05;100.00
20444;BME280;10381;53.730;10.010;2022-07-10T01:10:23;101731.66;;;11.95;100.00
20444;BME280;10381;53.730;10.010;2022-07-10T01:14:25;101733.22;;;11.86;100.00
20444;BME280;10381;53.730;10.010;2022-07-10T01:18:26;101737.22;;;11.92;100.00
20444;BME280;10381;53.730;10.010;2022-07-10T01:22:26;101721.56;;;12.00;100.00
20444;BME280;10381;53.730;10.010;2022-07-10T01:26:26;101716.47;;;12.08;100.00
20444;BME280;10381;53.730;10.010;2022-07-10T01:30:27;101718.16;;;12.09;100.00
20444;BME280;10381;53.730;10.010;2022-07-10T01:34:27;101712.25;;;12.06;100.00
20444;BME280;10381;53.730;10.010;2022-07-10T01:38:28;101709.22;;;11.99;100.00
20444;BME280;10381;53.730;10.010;2022-07-10T01:42:28;101709.13;;;12.01;100.00
20444;BME280;10381;53.730;10.010;2022-07-10T01:46:29;101704.03;;;11.98;100.00
20444;BME280;10381;53.730;10.010;2022-07-10T01:50:29;101704.75;;;12.00;100.00
20444;BME280;10381;53.730;10.010;2022-07-10T01:54:30;101687.38;;;12.07;100.00
20444;BME280;10381;53.730;10.010;2022-07-10T01:58:30;101681.09;;;12.08;100.00
20444;BME280;10381;53.730;10.010;2022-07-10T02:02:31;101684.94;;;12.15;100.00
20444;BME280;10381;53.730;10.010;2022-07-10T02:06:31;101687.56;;;12.26;100.00
20444;BME280;10381;53.730;10.010;2022-07-10T02:10:32;101677.91;;;12.25;100.00
20444;BME280;10381;53.730;10.010;2022-07-10T02:14:32;101679.72;;;12.25;100.00
20444;BME280;10381;53.730;10.010;2022-07-10T02:18:32;101673.91;;;12.31;100.00
20444;BME280;10381;53.730;10.010;2022-07-10T02:22:33;101681.03;;;12.30;100.00
20444;BME280;10381;53.730;10.010;2022-07-10T02:26:33;101677.91;;;12.25;100.00
20444;BME280;10381;53.730;10.010;2022-07-10T02:30:33;101665.13;;;12.19;100.00
20444;BME280;10381;53.730;10.010;2022-07-10T02:34:33;101678.63;;;12.27;100.00
20444;BME280;10381;53.730;10.010;2022-07-10T02:38:34;101674.50;;;12.34;100.00
20444;BME280;10381;53.730;10.010;2022-07-10T02:42:34;101673.06;;;12.30;100.00
20444;BME280;10381;53.730;10.010;2022-07-10T02:46:34;101685.41;;;12.31;100.00
20444;BME280;10381;53.730;10.010;2022-07-10T02:50:35;101678.63;;;12.27;100.00
20444;BME280;10381;53.730;10.010;2022-07-10T02:54:35;101681.41;;;12.26;100.00
20444;BME280;10381;53.730;10.010;2022-07-10T02:58:37;101675.25;;;12.25;100.00
20444;BME280;10381;53.730;10.010;2022-07-10T03:02:38;101678.75;;;12.26;100.00
20444;BME280;10381;53.730;10.010;2022-07-10T03:06:38;101675.47;;;12.33;100.00
20444;BME280;10381;53.730;10.010;2022-07-10T03:10:38;101685.00;;;12.36;100.00
20444;BME280;10381;53.730;10.010;2022-07-10T03:14:39;101679.81;;;12.34;100.00
20444;BME280;10381;53.730;10.010;2022-07-10T03:18:39;101680.28;;;12.40;100.00
20444;BME280;10381;53.730;10.010;2022-07-10T03:22:39;101672.91;;;12.43;100.00
20444;BME280;10381;53.730;10.010;2022-07-10T03:26:40;101674.47;;;12.46;100.00
20444;BME280;10381;53.730;10.010;2022-07-10T03:30:40;101667.94;;;12.50;100.00
20444;BME280;10381;53.730;10.010;2022-07-10T03:34:41;101672.16;;;12.52;100.00
20444;BME280;10381;53.730;10.010;2022-07-10T03:38:41;101665.28;;;12.50;100.00
20444;BME280;10381;53.730;10.010;2022-07-10T03:42:41;101660.78;;;12.50;100.00
20444;BME280;10381;53.730;10.010;2022-07-10T03:46:42;101661.28;;;12.55;100.00
20444;BME280;10381;53.730;10.010;2022-07-10T03:50:42;101670.41;;;12.63;100.00
20444;BME280;10381;53.730;10.010;2022-07-10T03:54:43;101658.94;;;12.62;100.00
20444;BME280;10381;53.730;10.010;2022-07-10T03:58:43;101662.31;;;12.64;100.00
20444;BME280;10381;53.730;10.010;2022-07-10T04:02:43;101660.72;;;12.73;100.00
20444;BME280;10381;53.730;10.010;2022-07-10T04:06:43;101653.72;;;12.93;100.00
20444;BME280;10381;53.730;10.010;2022-07-10T04:10:44;101660.88;;;13.44;100.00
20444;BME280;10381;53.730;10.010;2022-07-10T04:14:44;101660.16;;;14.33;100.00
20444;BME280;10381;53.730;10.010;2022-07-10T04:18:45;101663.78;;;15.94;100.00
20444;BME280;10381;53.730;10.010;2022-07-10T04:22:46;101654.84;;;14.81;100.00
20444;BME280;10381;53.730;10.010;2022-07-10T04:26:46;101648.88;;;13.90;100.00
20444;BME280;10381;53.730;10.010;2022-07-10T04:30:46;101644.13;;;14.03;100.00
20444;BME280;10381;53.730;10.010;2022-07-10T04:34:47;101649.81;;;14.68;100.00
20444;BME280;10381;53.730;10.010;2022-07-10T04:38:47;101641.88;;;13.89;100.00
20444;BME280;10381;53.730;10.010;2022-07-10T04:42:47;101649.63;;;13.61;100.00
20444;BME280;10381;53.730;10.010;2022-07-10T04:46:47;101644.53;;;13.49;100.00
20444;BME280;10381;53.730;10.010;2022-07-10T04:50:48;101648.50;;;13.54;100.00
20444;BME280;10381;53.730;10.010;2022-07-10T04:54:48;101654.28;;;13.38;100.00
20444;BME280;10381;53.730;10.010;2022-07-10T04:58:48;101659.09;;;13.45;100.00
20444;BME280;10381;53.730;10.010;2022-07-10T05:02:49;101662.41;;;14.18;100.00
20444;BME280;10381;53.730;10.010;2022-07-10T05:06:49;101668.78;;;14.65;100.00
20444;BME280;10381;53.730;10.010;2022-07-10T05:10:49;101673.50;;;15.01;100.00
20444;BME280;10381;53.730;10.010;2022-07-10T05:14:49;101672.81;;;14.50;100.00
20444;BME280;10381;53.730;10.010;2022-07-10T05:18:50;101669.25;;;14.01;100.00
20444;BME280;10381;53.730;10.010;2022-07-10T05:22:50;101674.50;;;13.81;100.00
20444;BME280;10381;53.730;10.010;2022-07-10T05:26:50;101672.50;;;14.14;100.00
20444;BME280;10381;53.730;10.010;2022-07-10T05:30:51;101674.47;;;14.12;100.00
20444;BME280;10381;53.730;10.010;2022-07-10T05:34:51;101665.47;;;14.13;100.00
20444;BME280;10381;53.730;10.010;2022-07-10T05:38:51;101675.31;;;15.20;100.00
20444;BME280;10381;53.730;10.010;2022-07-10T05:42:52;101673.41;;;15.49;100.00
20444;BME280;10381;53.730;10.010;2022-07-10T05:46:52;101684.19;;;15.01;100.00
20444;BME280;10381;53.730;10.010;2022-07-10T05:50:52;101680.69;;;14.81;100.00
20444;BME280;10381;53.730;10.010;2022-07-10T05:54:53;101674.63;;;14.30;100.00
20444;BME280;10381;53.730;10.010;2022-07-10T05:58:53;101673.97;;;14.96;100.00
20444;BME280;10381;53.730;10.010;2022-07-10T06:02:55;101674.31;;;14.14;100.00
20444;BME280;10381;53.730;10.010;2022-07-10T06:06:55;101672.59;;;13.93;100.00
20444;BME280;10381;53.730;10.010;2022-07-10T06:10:56;101671.13;;;14.39;100.00
20444;BME280;10381;53.730;10.010;2022-07-10T06:14:56;101683.22;;;14.92;100.00
20444;BME280;10381;53.730;10.010;2022-07-10T06:18:56;101682.84;;;15.34;100.00
20444;BME280;10381;53.730;10.010;2022-07-10T06:22:57;101693.31;;;15.18;100.00
20444;BME280;10381;53.730;10.010;2022-07-10T06:26:58;101688.75;;;15.38;100.00
20444;BME280;10381;53.730;10.010;2022-07-10T06:30:58;101692.44;;;15.27;100.00
20444;BME280;10381;53.730;10.010;2022-07-10T06:34:58;101692.28;;;15.38;100.00
20444;BME280;10381;53.730;10.010;2022-07-10T06:38:58;101682.97;;;14.76;100.00
20444;BME280;10381;53.730;10.010;2022-07-10T06:42:59;101695.84;;;15.00;100.00
20444;BME280;10381;53.730;10.010;2022-07-10T06:46:59;101687.69;;;15.11;100.00
20444;BME280;10381;53.730;10.010;2022-07-10T06:51:18;101690.31;;;15.68;100.00
20444;BME280;10381;53.730;10.010;2022-07-10T06:55:19;101705.66;;;15.28;100.00
20444;BME280;10381;53.730;10.010;2022-07-10T06:59:20;101689.13;;;16.35;100.00
20444;BME280;10381;53.730;10.010;2022-07-10T07:03:20;101682.00;;;16.72;100.00
20444;BME280;10381;53.730;10.010;2022-07-10T07:07:20;101678.72;;;18.33;100.00
20444;BME280;10381;53.730;10.010;2022-07-10T07:11:20;101670.50;;;17.23;100.00
20444;BME280;10381;53.730;10.010;2022-07-10T07:15:21;101668.06;;;16.68;100.00
20444;BME280;10381;53.730;10.010;2022-07-10T07:19:24;101667.00;;;16.97;100.00
20444;BME280;10381;53.730;10.010;2022-07-10T07:23:43;101667.53;;;16.65;100.00
20444;BME280;10381;53.730;10.010;2022-07-10T07:27:43;101669.06;;;16.85;100.00
20444;BME280;10381;53.730;10.010;2022-07-10T07:31:45;101674.31;;;17.13;100.00
20444;BME280;10381;53.730;10.010;2022-07-10T07:35:45;101679.13;;;16.19;100.00
20444;BME280;10381;53.730;10.010;2022-07-10T07:39:45;101668.63;;;16.08;100.00
20444;BME280;10381;53.730;10.010;2022-07-10T07:43:46;101667.75;;;16.17;100.00
20444;BME280;10381;53.730;10.010;2022-07-10T07:47:51;101674.53;;;15.84;100.00
20444;BME280;10381;53.730;10.010;2022-07-10T07:51:52;101692.50;;;15.92;100.00
20444;BME280;10381;53.730;10.010;2022-07-10T07:55:52;101679.22;;;15.72;100.00
20444;BME280;10381;53.730;10.010;2022-07-10T07:59:53;101674.03;;;16.44;100.00
20444;BME280;10381;53.730;10.010;2022-07-10T08:03:53;101670.97;;;16.39;100.00
20444;BME280;10381;53.730;10.010;2022-07-10T08:07:57;101672.63;;;16.22;100.00
20444;BME280;10381;53.730;10.010;2022-07-10T08:11:58;101680.97;;;16.19;100.00
20444;BME280;10381;53.730;10.010;2022-07-10T08:15:59;101670.22;;;16.29;100.00
20444;BME280;10381;53.730;10.010;2022-07-10T08:20:00;101667.81;;;16.61;100.00
20444;BME280;10381;53.730;10.010;2022-07-10T08:24:00;101658.16;;;17.04;100.00
20444;BME280;10381;53.730;10.010;2022-07-10T08:28:04;101651.34;;;16.48;100.00
20444;BME280;10381;53.730;10.010;2022-07-10T08:32:10;101657.75;;;16.37;100.00
20444;BME280;10381;53.730;10.010;2022-07-10T08:36:10;101647.97;;;16.82;100.00
20444;BME280;10381;53.730;10.010;2022-07-10T08:40:12;101663.72;;;16.85;100.00
20444;BME280;10381;53.730;10.010;2022-07-10T08:44:13;101654.72;;;16.86;100.00
20444;BME280;10381;53.730;10.010;2022-07-10T08:48:14;101655.25;;;16.36;100.00
20444;BME280;10381;53.730;10.010;2022-07-10T08:52:28;101634.75;;;16.63;100.00
20444;BME280;10381;53.730;10.010;2022-07-10T08:56:32;101650.88;;;16.17;100.00
20444;BME280;10381;53.730;10.010;2022-07-10T09:00:33;101642.75;;;16.09;100.00
20444;BME280;10381;53.730;10.010;2022-07-10T09:04:34;101653.75;;;16.59;100.00
20444;BME280;10381;53.730;10.010;2022-07-10T09:08:35;101657.28;;;16.78;100.00
20444;BME280;10381;53.730;10.010;2022-07-10T09:12:59;101652.03;;;16.86;100.00
20444;BME280;10381;53.730;10.010;2022-07-10T09:17:01;101641.75;;;17.60;100.00
20444;BME280;10381;53.730;10.010;2022-07-10T09:21:06;101643.09;;;17.64;100.00
20444;BME280;10381;53.730;10.010;2022-07-10T09:25:14;101636.59;;;18.09;100.00
20444;BME280;10381;53.730;10.010;2022-07-10T09:29:14;101645.34;;;18.36;100.00
20444;BME280;10381;53.730;10.010;2022-07-10T09:37:29;101643.47;;;18.20;100.00
20444;BME280;10381;53.730;10.010;2022-07-10T09:41:31;101656.53;;;17.38;100.00
20444;BME280;10381;53.730;10.010;2022-07-10T09:45:33;101646.63;;;17.64;100.00
20444;BME280;10381;53.730;10.010;2022-07-10T09:49:33;101642.09;;;17.99;100.00
20444;BME280;10381;53.730;10.010;2022-07-10T09:53:37;101649.63;;;17.96;100.00
20444;BME280;10381;53.730;10.010;2022-07-10T09:57:38;101663.00;;;17.87;100.00
20444;BME280;10381;53.730;10.010;2022-07-10T10:01:45;101660.25;;;17.79;100.00
20444;BME280;10381;53.730;10.010;2022-07-10T10:05:57;101659.66;;;17.94;100.00
20444;BME280;10381;53.730;10.010;2022-07-10T10:10:01;101661.75;;;18.33;100.00
20444;BME280;10381;53.730;10.010;2022-07-10T10:14:02;101660.91;;;17.73;100.00
20444;BME280;10381;53.730;10.010;2022-07-10T10:18:03;101672.66;;;18.31;100.00
20444;BME280;10381;53.730;10.010;2022-07-10T10:22:04;101658.63;;;18.70;100.00
20444;BME280;10381;53.730;10.010;2022-07-10T10:26:05;101662.00;;;18.80;100.00
20444;BME280;10381;53.730;10.010;2022-07-10T10:30:06;101666.16;;;18.50;100.00
20444;BME280;10381;53.730;10.010;2022-07-10T10:34:06;101644.88;;;17.81;100.00
20444;BME280;10381;53.730;10.010;2022-07-10T10:38:06;101649.03;;;19.25;100.00
20444;BME280;10381;53.730;10.010;2022-07-10T10:42:07;101650.00;;;18.09;100.00
20444;BME280;10381;53.730;10.010;2022-07-10T10:46:23;101636.75;;;18.16;100.00
20444;BME280;10381;53.730;10.010;2022-07-10T10:58:57;101660.09;;;18.40;100.00
20444;BME280;10381;53.730;10.010;2022-07-10T11:03:20;101656.19;;;19.88;99.88
20444;BME280;10381;53.730;10.010;2022-07-10T11:12:03;101668.38;;;18.87;98.14
20444;BME280;10381;53.730;10.010;2022-07-10T11:16:12;101656.78;;;18.87;98.93
20444;BME280;10381;53.730;10.010;2022-07-10T11:20:13;101675.75;;;19.02;100.00
20444;BME280;10381;53.730;10.010;2022-07-10T11:24:38;101668.84;;;18.58;100.00
20444;BME280;10381;53.730;10.010;2022-07-10T11:32:43;101668.38;;;19.76;98.21
20444;BME280;10381;53.730;10.010;2022-07-10T11:36:43;101665.66;;;18.55;99.69
20444;BME280;10381;53.730;10.010;2022-07-10T11:40:44;101666.84;;;19.09;95.74
20444;BME280;10381;53.730;10.010;2022-07-10T11:44:44;101653.25;;;18.78;96.13
20444;BME280;10381;53.730;10.010;2022-07-10T11:48:45;101663.84;;;18.80;100.00
20444;BME280;10381;53.730;10.010;2022-07-10T11:52:46;101664.69;;;18.88;98.73
20444;BME280;10381;53.730;10.010;2022-07-10T11:56:51;101668.84;;;18.74;100.00
20444;BME280;10381;53.730;10.010;2022-07-10T12:00:59;101675.50;;;18.29;100.00
20444;BME280;10381;53.730;10.010;2022-07-10T12:05:03;101658.59;;;18.45;98.77
20444;BME280;10381;53.730;10.010;2022-07-10T12:09:07;101693.19;;;17.98;100.00
20444;BME280;10381;53.730;10.010;2022-07-10T12:13:11;101667.34;;;18.97;100.00
20444;BME280;10381;53.730;10.010;2022-07-10T12:17:12;101679.25;;;19.02;99.66
20444;BME280;10381;53.730;10.010;2022-07-10T12:21:13;101673.91;;;18.94;100.00
20444;BME280;10381;53.730;10.010;2022-07-10T12:25:14;101672.34;;;18.34;100.00
20444;BME280;10381;53.730;10.010;2022-07-10T12:33:22;101683.47;;;18.97;100.00
20444;BME280;10381;53.730;10.010;2022-07-10T12:37:23;101685.59;;;18.36;100.00
20444;BME280;10381;53.730;10.010;2022-07-10T12:41:24;101697.03;;;18.70;100.00
20444;BME280;10381;53.730;10.010;2022-07-10T12:45:25;101692.00;;;18.76;100.00
20444;BME280;10381;53.730;10.010;2022-07-10T12:49:25;101697.91;;;18.04;100.00
20444;BME280;10381;53.730;10.010;2022-07-10T12:53:25;101704.97;;;18.13;100.00
20444;BME280;10381;53.730;10.010;2022-07-10T12:57:26;101705.78;;;18.97;100.00
20444;BME280;10381;53.730;10.010;2022-07-10T13:01:27;101709.44;;;18.63;100.00
20444;BME280;10381;53.730;10.010;2022-07-10T13:09:39;101698.28;;;18.09;100.00
20444;BME280;10381;53.730;10.010;2022-07-10T13:13:40;101707.16;;;17.75;100.00
20444;BME280;10381;53.730;10.010;2022-07-10T13:17:44;101692.22;;;18.07;100.00
20444;BME280;10381;53.730;10.010;2022-07-10T13:21:44;101701.47;;;17.78;100.00
20444;BME280;10381;53.730;10.010;2022-07-10T13:25:45;101715.94;;;17.59;100.00
20444;BME280;10381;53.730;10.010;2022-07-10T13:29:45;101716.78;;;17.86;100.00
20444;BME280;10381;53.730;10.010;2022-07-10T13:33:45;101719.88;;;17.73;100.00
20444;BME280;10381;53.730;10.010;2022-07-10T13:37:46;101701.09;;;17.73;100.00
20444;BME280;10381;53.730;10.010;2022-07-10T13:41:47;101713.59;;;17.82;100.00
20444;BME280;10381;53.730;10.010;2022-07-10T13:45:47;101713.63;;;17.99;100.00
20444;BME280;10381;53.730;10.010;2022-07-10T13:49:47;101718.47;;;18.46;100.00
20444;BME280;10381;53.730;10.010;2022-07-10T13:53:48;101712.09;;;18.39;100.00
20444;BME280;10381;53.730;10.010;2022-07-10T13:57:48;101696.66;;;18.41;100.00
20444;BME280;10381;53.730;10.010;2022-07-10T14:01:48;101716.66;;;17.70;100.00
20444;BME280;10381;53.730;10.010;2022-07-10T14:05:49;101701.34;;;18.39;100.00
20444;BME280;10381;53.730;10.010;2022-07-10T14:09:49;101716.47;;;18.48;100.00
20444;BME280;10381;53.730;10.010;2022-07-10T14:13:49;101713.81;;;18.64;100.00
20444;BME280;10381;53.730;10.010;2022-07-10T14:17:50;101717.25;;;18.24;100.00
20444;BME280;10381;53.730;10.010;2022-07-10T14:21:51;101706.97;;;18.11;100.00
20444;BME280;10381;53.730;10.010;2022-07-10T14:25:51;101708.38;;;18.23;100.00
20444;BME280;10381;53.730;10.010;2022-07-10T14:29:54;101713.50;;;17.74;100.00
20444;BME280;10381;53.730;10.010;2022-07-10T14:33:55;101713.25;;;17.33;100.00
20444;BME280;10381;53.730;10.010;2022-07-10T14:37:55;101719.75;;;17.49;100.00
20444;BME280;10381;53.730;10.010;2022-07-10T14:41:56;101712.19;;;17.26;100.00
20444;BME280;10381;53.730;10.010;2022-07-10T14:45:56;101712.63;;;17.65;100.00
20444;BME280;10381;53.730;10.010;2022-07-10T14:49:56;101708.97;;;17.75;100.00
20444;BME280;10381;53.730;10.010;2022-07-10T14:53:57;101712.41;;;17.59;100.00
20444;BME280;10381;53.730;10.010;2022-07-10T14:57:57;101714.31;;;18.01;100.00
20444;BME280;10381;53.730;10.010;2022-07-10T15:01:57;101701.59;;;18.03;100.00
20444;BME280;10381;53.730;10.010;2022-07-10T15:05:57;101689.78;;;18.38;100.00
20444;BME280;10381;53.730;10.010;2022-07-10T15:09:58;101702.47;;;18.20;100.00
20444;BME280;10381;53.730;10.010;2022-07-10T15:13:58;101701.34;;;18.39;100.00
20444;BME280;10381;53.730;10.010;2022-07-10T15:17:59;101704.13;;;19.12;100.00
20444;BME280;10381;53.730;10.010;2022-07-10T15:21:59;101708.50;;;18.89;100.00
20444;BME280;10381;53.730;10.010;2022-07-10T15:25:59;101703.25;;;20.55;100.00
20444;BME280;10381;53.730;10.010;2022-07-10T15:30:01;101706.97;;;19.83;100.00
20444;BME280;10381;53.730;10.010;2022-07-10T15:34:09;101702.94;;;19.15;100.00
20444;BME280;10381;53.730;10.010;2022-07-10T15:38:09;101707.66;;;18.88;100.00
20444;BME280;10381;53.730;10.010;2022-07-10T15:42:11;101705.91;;;19.45;100.00
20444;BME280;10381;53.730;10.010;2022-07-10T15:46:11;101705.00;;;20.16;100.00
20444;BME280;10381;53.730;10.010;2022-07-10T15:50:14;101696.81;;;18.39;100.00
20444;BME280;10381;53.730;10.010;2022-07-10T15:54:14;101698.41;;;18.99;100.00
20444;BME280;10381;53.730;10.010;2022-07-10T15:58:14;101691.25;;;20.03;100.00
20444;BME280;10381;53.730;10.010;2022-07-10T16:02:15;101689.22;;;20.05;100.00
20444;BME280;10381;53.730;10.010;2022-07-10T16:06:15;101691.44;;;18.39;100.00
20444;BME280;10381;53.730;10.010;2022-07-10T16:10:15;101681.88;;;18.28;100.00
20444;BME280;10381;53.730;10.010;2022-07-10T16:14:16;101687.59;;;18.42;100.00
20444;BME280;10381;53.730;10.010;2022-07-10T16:18:18;101697.00;;;20.00;100.00
20444;BME280;10381;53.730;10.010;2022-07-10T16:22:18;101700.75;;;19.10;100.00
20444;BME280;10381;53.730;10.010;2022-07-10T16:26:18;101688.97;;;18.70;100.00
20444;BME280;10381;53.730;10.010;2022-07-10T16:30:19;101688.91;;;19.52;100.00
20444;BME280;10381;53.730;10.010;2022-07-10T16:34:20;101680.53;;;20.26;100.00
20444;BME280;10381;53.730;10.010;2022-07-10T16:38:20;101679.28;;;18.94;100.00
20444;BME280;10381;53.730;10.010;2022-07-10T16:42:20;101687.47;;;17.93;100.00
20444;BME280;10381;53.730;10.010;2022-07-10T16:46:21;101686.63;;;19.16;100.00
20444;BME280;10381;53.730;10.010;2022-07-10T16:50:22;101702.44;;;20.23;100.00
20444;BME280;10381;53.730;10.010;2022-07-10T16:54:22;101685.47;;;19.11;100.00
20444;BME280;10381;53.730;10.010;2022-07-10T16:58:22;101691.69;;;19.20;100.00
20444;BME280;10381;53.730;10.010;2022-07-10T17:02:26;101679.53;;;19.48;100.00
20444;BME280;10381;53.730;10.010;2022-07-10T17:06:26;101687.59;;;19.48;100.00
20444;BME280;10381;53.730;10.010;2022-07-10T17:10:27;101686.25;;;19.44;100.00
20444;BME280;10381;53.730;10.010;2022-07-10T17:14:28;101676.75;;;19.81;100.00
20444;BME280;10381;53.730;10.010;2022-07-10T17:18:28;101675.09;;;19.64;100.00
20444;BME280;10381;53.730;10.010;2022-07-10T17:22:28;101675.41;;;19.77;100.00
20444;BME280;10381;53.730;10.010;2022-07-10T17:26:28;101679.41;;;19.89;100.00
20444;BME280;10381;53.730;10.010;2022-07-10T17:30:29;101678.44;;;18.93;100.00
20444;BME280;10381;53.730;10.010;2022-07-10T17:34:29;101677.41;;;19.27;100.00
20444;BME280;10381;53.730;10.010;2022-07-10T17:38:29;101676.97;;;19.63;100.00
20444;BME280;10381;53.730;10.010;2022-07-10T17:42:30;101686.75;;;19.95;100.00
20444;BME280;10381;53.730;10.010;2022-07-10T17:46:30;101686.31;;;19.11;100.00
20444;BME280;10381;53.730;10.010;2022-07-10T17:50:30;101682.41;;;17.55;100.00
20444;BME280;10381;53.730;10.010;2022-07-10T17:54:31;101672.47;;;17.39;100.00
20444;BME280;10381;53.730;10.010;2022-07-10T17:58:31;101679.72;;;18.48;100.00
20444;BME280;10381;53.730;10.010;2022-07-10T18:02:31;101687.41;;;19.50;100.00
20444;BME280;10381;53.730;10.010;2022-07-10T18:06:32;101683.22;;;18.24;100.00
20444;BME280;10381;53.730;10.010;2022-07-10T18:10:33;101679.13;;;17.35;100.00
20444;BME280;10381;53.730;10.010;2022-07-10T18:14:33;101680.25;;;17.24;100.00
20444;BME280;10381;53.730;10.010;2022-07-10T18:18:34;101677.84;;;16.77;100.00
20444;BME280;10381;53.730;10.010;2022-07-10T18:22:34;101676.78;;;16.52;100.00
20444;BME280;10381;53.730;10.010;2022-07-10T18:26:34;101669.66;;;16.07;100.00
20444;BME280;10381;53.730;10.010;2022-07-10T18:30:35;101663.78;;;15.94;100.00
20444;BME280;10381;53.730;10.010;2022-07-10T18:34:35;101667.56;;;15.73;100.00
20444;BME280;10381;53.730;10.010;2022-07-10T18:38:36;101669.13;;;15.66;100.00
20444;BME280;10381;53.730;10.010;2022-07-10T18:42:36;101680.81;;;15.55;100.00
20444;BME280;10381;53.730;10.010;2022-07-10T18:46:37;101681.56;;;15.48;100.00
20444;BME280;10381;53.730;10.010;2022-07-10T18:50:37;101685.00;;;15.30;100.00
20444;BME280;10381;53.730;10.010;2022-07-10T18:54:37;101669.44;;;15.16;100.00
20444;BME280;10381;53.730;10.010;2022-07-10T18:58:38;101684.34;;;15.09;100.00
20444;BME280;10381;53.730;10.010;2022-07-10T19:02:38;101682.94;;;14.95;100.00
20444;BME280;10381;53.730;10.010;2022-07-10T19:06:38;101685.06;;;14.82;100.00
20444;BME280;10381;53.730;10.010;2022-07-10T19:10:39;101689.41;;;14.73;100.00
20444;BME280;10381;53.730;10.010;2022-07-10T19:14:39;101697.84;;;14.59;100.00
20444;BME280;10381;53.730;10.010;2022-07-10T19:18:40;101695.00;;;14.51;100.00
20444;BME280;10381;53.730;10.010;2022-07-10T19:22:45;101692.31;;;14.31;100.00
20444;BME280;10381;53.730;10.010;2022-07-10T19:26:47;101694.06;;;14.11;100.00
20444;BME280;10381;53.730;10.010;2022-07-10T19:30:47;101700.53;;;14.09;100.00
20444;BME280;10381;53.730;10.010;2022-07-10T19:34:47;101705.88;;;13.78;100.00
20444;BME280;10381;53.730;10.010;2022-07-10T19:38:48;101704.69;;;13.61;100.00
20444;BME280;10381;53.730;10.010;2022-07-10T19:42:48;101709.00;;;13.52;100.00
20444;BME280;10381;53.730;10.010;2022-07-10T19:46:49;101724.97;;;13.52;100.00
20444;BME280;10381;53.730;10.010;2022-07-10T19:50:49;101713.69;;;13.39;100.00
20444;BME280;10381;53.730;10.010;2022-07-10T19:54:50;101709.66;;;13.24;100.00
20444;BME280;10381;53.730;10.010;2022-07-10T19:58:50;101704.00;;;13.17;100.00
20444;BME280;10381;53.730;10.010;2022-07-10T20:02:51;101707.88;;;13.13;100.00
20444;BME280;10381;53.730;10.010;2022-07-10T20:06:54;101703.69;;;12.89;100.00
20444;BME280;10381;53.730;10.010;2022-07-10T20:10:54;101701.00;;;12.57;100.00
20444;BME280;10381;53.730;10.010;2022-07-10T20:14:55;101705.78;;;12.31;100.00
20444;BME280;10381;53.730;10.010;2022-07-10T20:18:55;101714.66;;;12.09;100.00
20444;BME280;10381;53.730;10.010;2022-07-10T20:22:55;101712.47;;;11.69;100.00
20444;BME280;10381;53.730;10.010;2022-07-10T20:26:56;101718.84;;;11.55;100.00
20444;BME280;10381;53.730;10.010;2022-07-10T20:30:57;101718.94;;;11.31;100.00
20444;BME280;10381;53.730;10.010;2022-07-10T20:34:58;101727.41;;;11.01;100.00
20444;BME280;10381;53.730;10.010;2022-07-10T20:38:58;101723.09;;;10.76;100.00
20444;BME280;10381;53.730;10.010;2022-07-10T20:43:00;101727.00;;;10.59;100.00
20444;BME280;10381;53.730;10.010;2022-07-10T20:47:01;101723.94;;;10.52;100.00
20444;BME280;10381;53.730;10.010;2022-07-10T20:51:01;101728.28;;;10.53;100.00
20444;BME280;10381;53.730;10.010;2022-07-10T20:55:01;101727.09;;;10.33;100.00
20444;BME280;10381;53.730;10.010;2022-07-10T20:59:02;101735.47;;;10.14;100.00